Terminal Aerodrome Forecast
Issued by NWS Jackson, MS

Home | Current Version | Previous Version | Text Only | Print | Product List | Glossary On
Versions: 1 2 3 4 5 6 7 8 9 10 11 12 13
364
FTUS44 KJAN 271121
TAFMEI
TAF
KMEI 271121Z 2712/2812 15006KT P6SM VCTS BKN040CB
     FM271400 14006KT 4SM SHRA BR VCTS BKN015CB OVC020
     FM271600 14008KT 6SM -SHRA BR SCT012 BKN030
     FM272000 12008KT P6SM SCT030 BKN100
     FM280200 16008KT 4SM BR BKN010
     FM280700 18006KT 2SM BR OVC010=

USA.gov is the U.S. government's official web portal to all federal, state and local government web resources and services.